Elim, Alaska
Current Conditions -  °F | °C
As of 2:58 PM on Monday 20 Oct 2014 (Local Time) from PFEL Reporting Station
Overcast Overcast  
Wind Chill: 20°   Ceiling: 7000
Heat Index: 32°   Visibility: 10mi
Dew Point: 22°   Wind: 20mph
Humidity: 66%   Direction: 360°N
Pressure: 29.28"   Gusts: 24mph
Location:  64.62°N, 162.27°W
Report Text: PFEL 202258Z AUTO 36017G21KT 10SM OVC070 00/M06 A2928 RMK AO2 SLP919 T00001056 FZRANO
Loading
Personal Weather Stations






























Interactive Weather Map
Tropical Storm Tracking
New forecast layout! Learn more

10-Day Weather Forecast

Advertisements
Track Severe Weather on mobile